createdAt,value
2023-03-29T00:00:35.909Z,15.60
2023-03-29T00:01:42.033Z,15.22
2023-03-29T00:02:48.730Z,15.48
2023-03-29T00:03:52.013Z,15.18
2023-03-29T00:04:53.859Z,15.43
2023-03-29T00:06:03.219Z,15.38
2023-03-29T00:07:06.069Z,15.07
2023-03-29T00:08:09.153Z,15.54
2023-03-29T00:09:11.400Z,15.56
2023-03-29T00:10:13.367Z,15.53
2023-03-29T00:11:15.137Z,15.21
2023-03-29T00:12:17.496Z,15.39
2023-03-29T00:13:19.338Z,15.64
2023-03-29T00:14:21.249Z,15.08
2023-03-29T00:15:23.263Z,15.05
2023-03-29T00:16:25.353Z,15.40
2023-03-29T00:17:27.230Z,15.40
2023-03-29T00:18:29.067Z,15.37
2023-03-29T00:19:35.618Z,15.24
2023-03-29T00:20:37.725Z,15.34
2023-03-29T00:21:39.524Z,15.18
2023-03-29T00:22:46.824Z,15.47
2023-03-29T00:23:48.750Z,15.19
2023-03-29T00:24:54.246Z,15.33
2023-03-29T00:25:56.919Z,15.65
2023-03-29T00:26:58.715Z,15.46
2023-03-29T00:28:00.527Z,15.06
2023-03-29T00:29:02.367Z,15.34
2023-03-29T00:30:07.402Z,15.43
2023-03-29T00:31:14.839Z,15.16
2023-03-29T00:32:16.841Z,15.23
2023-03-29T00:33:20.685Z,14.91
2023-03-29T00:34:23.937Z,15.27
2023-03-29T00:35:25.795Z,15.19
2023-03-29T00:36:28.005Z,15.29
2023-03-29T00:37:32.611Z,15.39
2023-03-29T00:38:35.134Z,15.40
2023-03-29T00:39:37.185Z,15.28
2023-03-29T00:40:47.104Z,15.65
2023-03-29T00:41:50.385Z,14.97
2023-03-29T00:42:52.380Z,15.39
2023-03-29T00:44:02.833Z,15.08
2023-03-29T00:45:10.867Z,15.19
2023-03-29T00:46:13.569Z,15.53
2023-03-29T00:47:16.376Z,15.19
2023-03-29T00:48:27.283Z,15.21
2023-03-29T00:49:29.486Z,15.27
2023-03-29T00:50:51.787Z,15.57
2023-03-29T00:51:53.762Z,15.14
2023-03-29T00:53:21.873Z,15.20
2023-03-29T00:54:24.952Z,15.01
2023-03-29T00:55:32.511Z,15.28
2023-03-29T00:56:40.554Z,15.31
2023-03-29T00:57:46.518Z,15.13
2023-03-29T00:58:55.261Z,15.37
2023-03-29T00:59:59.129Z,15.21
2023-03-29T01:01:08.872Z,15.08
2023-03-29T01:02:11.551Z,15.55
2023-03-29T01:03:14.730Z,15.14
2023-03-29T01:04:40.689Z,15.55
2023-03-29T01:05:49.814Z,15.10
2023-03-29T01:07:23.383Z,15.08
2023-03-29T01:08:41.952Z,15.40
2023-03-29T01:09:48.554Z,15.24
2023-03-29T01:11:17.322Z,15.35
2023-03-29T01:12:32.770Z,15.40
2023-03-29T01:14:10.545Z,15.28
2023-03-29T01:15:17.593Z,15.03
2023-03-29T01:16:22.135Z,15.34
2023-03-29T01:17:25.621Z,15.38
2023-03-29T01:18:27.633Z,15.36
2023-03-29T01:19:34.729Z,15.32
2023-03-29T01:21:03.469Z,15.49
2023-03-29T01:22:29.719Z,15.37
2023-03-29T01:23:51.247Z,15.24
2023-03-29T01:25:07.144Z,15.20
2023-03-29T01:26:18.948Z,15.58
2023-03-29T01:27:58.232Z,15.66
2023-03-29T01:29:23.737Z,15.36
2023-03-29T01:30:37.375Z,15.24
2023-03-29T01:31:47.908Z,15.49
2023-03-29T01:32:55.654Z,15.31
2023-03-29T01:34:12.804Z,15.67
2023-03-29T01:35:42.585Z,15.31
2023-03-29T01:37:14.131Z,15.51
2023-03-29T01:38:23.473Z,15.05
2023-03-29T01:39:25.352Z,15.51
2023-03-29T01:40:28.408Z,15.46
2023-03-29T01:41:46.800Z,15.28
2023-03-29T01:43:25.005Z,15.31
2023-03-29T01:44:41.740Z,15.66
2023-03-29T01:45:54.470Z,15.25
2023-03-29T01:47:12.399Z,15.37
2023-03-29T01:48:44.208Z,15.43
2023-03-29T01:50:12.315Z,15.07
2023-03-29T01:51:31.696Z,15.49
2023-03-29T01:52:54.127Z,15.15
2023-03-29T01:54:08.010Z,15.00
2023-03-29T01:55:18.576Z,15.40
2023-03-29T01:56:24.911Z,15.42
2023-03-29T01:57:27.476Z,15.44
2023-03-29T01:58:34.009Z,15.40
2023-03-29T01:59:40.682Z,15.23
2023-03-29T02:00:43.897Z,15.21
2023-03-29T02:01:51.829Z,15.33
2023-03-29T02:03:00.247Z,15.18
2023-03-29T02:04:06.835Z,15.66
2023-03-29T02:05:10.297Z,15.10
2023-03-29T02:06:15.548Z,15.05
2023-03-29T02:07:22.480Z,15.42
2023-03-29T02:08:25.702Z,15.32
2023-03-29T02:09:29.894Z,15.36
2023-03-29T02:10:34.013Z,15.31
2023-03-29T02:11:36.306Z,15.33
2023-03-29T02:12:38.730Z,15.16
2023-03-29T02:13:41.065Z,15.28
2023-03-29T02:14:43.266Z,15.26
2023-03-29T02:15:48.471Z,15.55
2023-03-29T02:16:50.287Z,15.59
2023-03-29T02:17:53.086Z,15.66
2023-03-29T02:18:57.707Z,15.38
2023-03-29T02:20:14.581Z,15.18
2023-03-29T02:21:26.566Z,15.27
2023-03-29T02:22:39.630Z,15.50
2023-03-29T02:23:46.694Z,15.53
2023-03-29T02:24:51.188Z,15.28
2023-03-29T02:25:57.169Z,15.32
2023-03-29T02:27:01.394Z,15.30
2023-03-29T02:28:04.859Z,15.39
2023-03-29T02:29:06.763Z,15.54
2023-03-29T02:30:12.115Z,15.58
2023-03-29T02:31:40.335Z,15.19
2023-03-29T02:32:59.532Z,15.21
2023-03-29T02:34:04.906Z,15.12
2023-03-29T02:35:16.037Z,15.14
2023-03-29T02:36:40.339Z,15.57
2023-03-29T02:37:46.396Z,15.34
2023-03-29T02:38:48.626Z,15.24
2023-03-29T02:39:52.526Z,15.03
2023-03-29T02:40:56.033Z,15.39
2023-03-29T02:41:58.966Z,15.67
2023-03-29T02:43:03.164Z,15.49
2023-03-29T02:44:11.177Z,15.55
2023-03-29T02:45:17.237Z,14.99
2023-03-29T02:46:21.058Z,15.41
2023-03-29T02:47:46.561Z,15.14
2023-03-29T02:48:51.885Z,15.55
2023-03-29T02:49:54.147Z,15.00
2023-03-29T02:51:01.337Z,15.49
2023-03-29T02:52:12.451Z,15.64
2023-03-29T02:53:23.066Z,15.11
2023-03-29T02:54:30.001Z,15.55
2023-03-29T02:55:34.920Z,15.54
2023-03-29T02:56:45.008Z,15.31
2023-03-29T02:57:47.039Z,15.49
2023-03-29T02:58:48.852Z,15.25
2023-03-29T02:59:50.677Z,15.35
2023-03-29T03:00:53.606Z,15.01
2023-03-29T03:01:55.679Z,15.28
2023-03-29T03:03:01.928Z,15.58
2023-03-29T03:04:04.249Z,15.29
2023-03-29T03:05:06.485Z,15.65
2023-03-29T03:06:08.544Z,15.54
2023-03-29T03:07:10.543Z,15.41
2023-03-29T03:08:12.597Z,15.68
2023-03-29T03:09:14.767Z,14.97
2023-03-29T03:10:19.248Z,15.29
2023-03-29T03:11:22.701Z,15.23
2023-03-29T03:12:24.600Z,15.16
2023-03-29T03:13:26.427Z,15.17
2023-03-29T03:14:28.378Z,15.62
2023-03-29T03:15:35.844Z,15.66
2023-03-29T03:16:37.850Z,15.05
2023-03-29T03:17:40.515Z,15.75
2023-03-29T03:18:43.210Z,15.28
2023-03-29T03:19:45.033Z,15.06
2023-03-29T03:21:01.913Z,15.50
2023-03-29T03:22:06.085Z,15.00
2023-03-29T03:23:09.790Z,15.37
2023-03-29T03:24:12.587Z,15.25
2023-03-29T03:25:19.662Z,15.34
2023-03-29T03:26:24.919Z,15.55
2023-03-29T03:27:27.087Z,15.13
2023-03-29T03:28:28.911Z,15.02
2023-03-29T03:29:31.267Z,15.57
2023-03-29T03:30:59.170Z,15.67
2023-03-29T03:32:24.376Z,14.99
2023-03-29T03:33:55.361Z,15.27
2023-03-29T03:35:32.375Z,14.91
2023-03-29T03:36:35.632Z,15.08
2023-03-29T03:37:38.844Z,15.33
2023-03-29T03:38:44.115Z,15.17
2023-03-29T03:39:47.010Z,15.03
2023-03-29T03:40:56.866Z,15.35
2023-03-29T03:41:59.071Z,15.20
2023-03-29T03:43:01.825Z,15.03
2023-03-29T03:44:03.987Z,15.63
2023-03-29T03:45:08.444Z,15.11
2023-03-29T03:46:27.800Z,14.95
2023-03-29T03:47:31.381Z,15.33
2023-03-29T03:48:47.042Z,15.07
2023-03-29T03:49:56.690Z,15.60
2023-03-29T03:51:00.614Z,15.00
2023-03-29T03:52:08.771Z,15.02
2023-03-29T03:53:10.598Z,15.51
2023-03-29T03:54:38.953Z,15.19
2023-03-29T03:56:08.811Z,15.38
2023-03-29T03:57:20.054Z,14.79
2023-03-29T03:58:27.227Z,14.94
2023-03-29T03:59:29.510Z,15.27
2023-03-29T04:00:36.461Z,15.32
2023-03-29T04:01:56.779Z,15.19
2023-03-29T04:02:59.500Z,15.25
2023-03-29T04:04:02.073Z,14.95
2023-03-29T04:05:05.282Z,15.32
2023-03-29T04:06:11.301Z,15.03
2023-03-29T04:07:34.416Z,15.19
2023-03-29T04:08:56.832Z,14.94
2023-03-29T04:10:24.778Z,15.29
2023-03-29T04:11:46.989Z,14.81
2023-03-29T04:12:49.112Z,15.14
2023-03-29T04:13:50.902Z,14.98
2023-03-29T04:15:10.577Z,15.58
2023-03-29T04:16:15.528Z,15.00
2023-03-29T04:17:17.582Z,15.19
2023-03-29T04:18:45.748Z,15.22
2023-03-29T04:19:47.775Z,15.19
2023-03-29T04:20:50.228Z,14.94
2023-03-29T04:21:54.676Z,15.58
2023-03-29T04:22:56.584Z,15.17
2023-03-29T04:23:58.909Z,15.51
2023-03-29T04:25:01.149Z,15.51
2023-03-29T04:26:29.293Z,15.18
2023-03-29T04:27:37.505Z,15.16
2023-03-29T04:28:46.598Z,15.18
2023-03-29T04:29:53.166Z,15.22
2023-03-29T04:31:03.467Z,15.46
2023-03-29T04:32:20.463Z,15.21
2023-03-29T04:33:31.097Z,15.23
2023-03-29T04:34:35.735Z,15.20
2023-03-29T04:35:39.977Z,15.63
2023-03-29T04:36:45.876Z,15.36
2023-03-29T04:37:54.706Z,15.51
2023-03-29T04:39:01.474Z,15.08
2023-03-29T04:40:04.929Z,15.31
2023-03-29T04:41:20.245Z,15.45
2023-03-29T04:42:51.764Z,15.60
2023-03-29T04:43:56.223Z,15.42
2023-03-29T04:45:01.117Z,15.35
2023-03-29T04:46:22.053Z,15.33
2023-03-29T04:47:45.337Z,15.27
2023-03-29T04:48:52.218Z,15.58
2023-03-29T04:50:03.402Z,15.53
2023-03-29T04:51:12.800Z,15.26
2023-03-29T04:52:15.403Z,14.94
2023-03-29T04:53:18.452Z,15.35
2023-03-29T04:54:21.297Z,15.14
2023-03-29T04:55:50.743Z,15.39
2023-03-29T04:57:02.128Z,15.54
2023-03-29T04:58:39.473Z,15.22
2023-03-29T04:59:41.513Z,15.29
2023-03-29T05:01:06.523Z,15.16
2023-03-29T05:02:16.360Z,15.40
2023-03-29T05:03:22.132Z,15.30
2023-03-29T05:04:33.352Z,14.99
2023-03-29T05:05:44.454Z,15.44
2023-03-29T05:06:46.979Z,15.15
2023-03-29T05:07:48.807Z,15.10
2023-03-29T05:08:54.464Z,15.35
2023-03-29T05:10:15.572Z,15.30
2023-03-29T05:11:17.692Z,15.53
2023-03-29T05:12:19.611Z,14.92
2023-03-29T05:13:27.100Z,15.65
2023-03-29T05:14:29.037Z,15.23
2023-03-29T05:15:31.536Z,15.35
2023-03-29T05:16:34.668Z,15.55
2023-03-29T05:17:36.672Z,14.93
2023-03-29T05:18:43.615Z,15.24
2023-03-29T05:19:46.810Z,15.25
2023-03-29T05:20:53.156Z,14.97
2023-03-29T05:21:56.392Z,15.39
2023-03-29T05:22:59.827Z,15.21
2023-03-29T05:24:24.591Z,14.75
2023-03-29T05:25:33.605Z,15.22
2023-03-29T05:26:35.631Z,15.31
2023-03-29T05:27:38.573Z,14.82
2023-03-29T05:28:43.963Z,15.32
2023-03-29T05:29:46.718Z,14.69
2023-03-29T05:31:07.111Z,14.98
2023-03-29T05:32:11.669Z,15.11
2023-03-29T05:33:13.780Z,14.91
2023-03-29T05:34:15.656Z,14.41
2023-03-29T05:35:23.666Z,14.68
2023-03-29T05:36:25.848Z,14.92
2023-03-29T05:37:28.677Z,15.00
2023-03-29T05:38:34.772Z,14.66
2023-03-29T05:39:38.136Z,14.87
2023-03-29T05:40:41.558Z,14.93
2023-03-29T05:42:06.488Z,14.60
2023-03-29T05:43:20.156Z,14.63
2023-03-29T05:44:22.354Z,14.35
2023-03-29T05:45:29.996Z,14.73
2023-03-29T05:46:32.108Z,14.34
2023-03-29T05:47:37.508Z,14.33
2023-03-29T05:48:40.545Z,14.52
2023-03-29T05:49:42.660Z,14.55
2023-03-29T05:50:53.548Z,14.33
2023-03-29T05:51:58.712Z,14.68
2023-03-29T05:53:02.073Z,14.22
2023-03-29T05:54:04.086Z,14.78
2023-03-29T05:55:06.371Z,14.65
2023-03-29T05:56:10.813Z,14.18
2023-03-29T05:57:12.887Z,14.07
2023-03-29T05:58:18.066Z,14.46
2023-03-29T05:59:20.681Z,14.39
2023-03-29T06:00:26.817Z,14.65
2023-03-29T06:01:41.869Z,14.77
2023-03-29T06:02:45.842Z,14.13
2023-03-29T06:03:48.134Z,14.32
2023-03-29T06:04:52.257Z,14.44
2023-03-29T06:06:16.694Z,14.44
2023-03-29T06:07:18.723Z,14.25
2023-03-29T06:08:36.682Z,14.09
2023-03-29T06:09:49.338Z,14.00
2023-03-29T06:11:04.628Z,14.03
2023-03-29T06:12:26.220Z,14.52
2023-03-29T06:13:37.304Z,14.16
2023-03-29T06:14:40.219Z,14.15
2023-03-29T06:15:53.765Z,14.47
2023-03-29T06:16:56.624Z,13.94
2023-03-29T06:17:59.321Z,14.40
2023-03-29T06:19:01.482Z,14.46
2023-03-29T06:20:10.677Z,14.55
2023-03-29T06:21:14.471Z,14.38
2023-03-29T06:22:16.328Z,14.46
2023-03-29T06:23:20.327Z,14.24
2023-03-29T06:24:22.459Z,14.06
2023-03-29T06:25:30.285Z,14.57
2023-03-29T06:26:33.070Z,14.01
2023-03-29T06:27:35.412Z,14.25
2023-03-29T06:28:37.427Z,14.59
2023-03-29T06:29:39.606Z,14.49
2023-03-29T06:30:43.704Z,14.34
2023-03-29T06:31:46.333Z,14.44
2023-03-29T06:33:09.251Z,13.99
2023-03-29T06:34:25.900Z,14.54
2023-03-29T06:35:48.638Z,14.71
2023-03-29T06:36:55.027Z,14.23
2023-03-29T06:37:57.123Z,14.18
2023-03-29T06:39:26.387Z,14.41
2023-03-29T06:40:45.620Z,14.03
2023-03-29T06:41:48.019Z,14.09
2023-03-29T06:43:13.066Z,13.96
2023-03-29T06:44:42.149Z,14.43
2023-03-29T06:45:54.928Z,14.30
2023-03-29T06:47:06.237Z,14.17
2023-03-29T06:48:08.841Z,14.47
2023-03-29T06:49:12.013Z,14.11
2023-03-29T06:50:24.535Z,14.38
2023-03-29T06:51:47.033Z,14.37
2023-03-29T06:52:49.867Z,14.09
2023-03-29T06:53:52.108Z,14.33
2023-03-29T06:54:54.125Z,14.40
2023-03-29T06:56:05.239Z,14.54
2023-03-29T06:57:16.096Z,14.81
2023-03-29T06:58:17.990Z,14.53
2023-03-29T06:59:19.825Z,14.48
2023-03-29T07:00:35.880Z,14.62
2023-03-29T07:01:54.106Z,14.48
2023-03-29T07:03:20.239Z,14.05
2023-03-29T07:04:25.188Z,14.46
2023-03-29T07:05:44.974Z,14.04
2023-03-29T07:07:01.351Z,14.24
2023-03-29T07:08:05.856Z,14.64
2023-03-29T07:09:31.377Z,14.35
2023-03-29T07:10:59.643Z,14.16
2023-03-29T07:12:09.020Z,14.13
2023-03-29T07:13:13.372Z,14.51
2023-03-29T07:14:15.747Z,14.41
2023-03-29T07:15:17.908Z,14.50
2023-03-29T07:16:56.068Z,14.15
2023-03-29T07:18:05.032Z,14.46
2023-03-29T07:19:09.513Z,14.24
2023-03-29T07:20:33.803Z,14.39
2023-03-29T07:21:42.608Z,14.10
2023-03-29T07:22:47.149Z,14.63
2023-03-29T07:23:49.574Z,14.41
2023-03-29T07:24:51.463Z,14.22
2023-03-29T07:25:54.143Z,14.41
2023-03-29T07:27:04.249Z,14.29
2023-03-29T07:28:07.885Z,14.42
2023-03-29T07:29:09.798Z,14.61
2023-03-29T07:30:18.088Z,14.46
2023-03-29T07:31:20.043Z,14.32
2023-03-29T07:32:31.322Z,14.54
2023-03-29T07:34:12.062Z,14.61
2023-03-29T07:35:15.227Z,14.30
2023-03-29T07:36:17.076Z,14.78
2023-03-29T07:37:18.875Z,14.48
2023-03-29T07:38:21.555Z,14.65
2023-03-29T07:39:31.058Z,14.65
2023-03-29T07:40:59.902Z,14.67
2023-03-29T07:42:19.789Z,14.24
2023-03-29T07:43:21.984Z,14.35
2023-03-29T07:44:23.965Z,14.49
2023-03-29T07:45:29.113Z,14.42
2023-03-29T07:46:47.564Z,14.45
2023-03-29T07:47:54.060Z,14.51
2023-03-29T07:48:56.793Z,14.46
2023-03-29T07:49:59.305Z,14.43
2023-03-29T07:51:01.994Z,14.32
2023-03-29T07:52:09.251Z,14.48
2023-03-29T07:53:11.237Z,14.49
2023-03-29T07:54:13.125Z,14.73
2023-03-29T07:55:22.739Z,14.54
2023-03-29T07:56:37.327Z,14.79
2023-03-29T07:57:49.633Z,14.65
2023-03-29T07:58:52.274Z,14.74
2023-03-29T07:59:54.814Z,14.55
2023-03-29T08:01:01.922Z,14.48
2023-03-29T08:02:27.451Z,14.49
2023-03-29T08:03:32.273Z,14.29
2023-03-29T08:04:34.755Z,14.38
2023-03-29T08:05:56.917Z,14.49
2023-03-29T08:06:59.475Z,14.32
2023-03-29T08:08:14.305Z,14.79
2023-03-29T08:09:29.306Z,14.81
2023-03-29T08:10:31.662Z,14.49
2023-03-29T08:11:40.962Z,14.34
2023-03-29T08:12:52.464Z,14.51
2023-03-29T08:14:00.107Z,14.25
2023-03-29T08:15:02.317Z,14.81
2023-03-29T08:16:08.877Z,14.41
2023-03-29T08:17:15.939Z,14.47
2023-03-29T08:18:22.388Z,14.58
2023-03-29T08:19:24.491Z,14.35
2023-03-29T08:20:35.510Z,14.85
2023-03-29T08:21:39.356Z,14.98
2023-03-29T08:22:42.246Z,14.73
2023-03-29T08:24:04.559Z,14.54
2023-03-29T08:25:18.595Z,14.97
2023-03-29T08:26:24.399Z,14.87
2023-03-29T08:27:26.717Z,14.62
2023-03-29T08:28:29.197Z,14.60
2023-03-29T08:29:31.368Z,14.63
2023-03-29T08:30:34.097Z,14.97
2023-03-29T08:31:38.034Z,14.64
2023-03-29T08:32:40.046Z,14.87
2023-03-29T08:33:44.346Z,14.64
2023-03-29T08:35:18.594Z,14.93
2023-03-29T08:36:39.033Z,14.44
2023-03-29T08:37:47.818Z,15.04
2023-03-29T08:38:51.549Z,14.59
2023-03-29T08:39:53.725Z,14.62
2023-03-29T08:41:41.719Z,14.76
2023-03-29T08:43:28.629Z,14.95
2023-03-29T08:45:26.869Z,14.69
2023-03-29T08:46:42.998Z,14.32
2023-03-29T08:48:26.777Z,14.44
2023-03-29T08:49:30.919Z,14.75
2023-03-29T08:50:38.219Z,14.61
2023-03-29T08:51:46.022Z,14.94
2023-03-29T08:53:00.678Z,14.84
2023-03-29T08:54:47.504Z,14.91
2023-03-29T08:56:20.734Z,14.39
2023-03-29T08:57:48.802Z,14.44
2023-03-29T08:59:01.736Z,14.99
2023-03-29T09:00:14.420Z,14.94
2023-03-29T09:01:16.255Z,14.77
2023-03-29T09:02:34.194Z,14.85
2023-03-29T09:03:48.309Z,14.62
2023-03-29T09:05:20.520Z,15.21
2023-03-29T09:06:55.333Z,14.94
2023-03-29T09:08:02.033Z,14.71
2023-03-29T09:09:03.993Z,14.91
2023-03-29T09:10:06.191Z,14.70
2023-03-29T09:11:24.509Z,14.72
2023-03-29T09:12:58.809Z,15.15
2023-03-29T09:14:10.339Z,14.85
2023-03-29T09:15:27.877Z,15.09
2023-03-29T09:17:27.367Z,14.99
2023-03-29T09:18:34.950Z,14.54
2023-03-29T09:19:43.139Z,14.81
2023-03-29T09:20:51.533Z,15.31
2023-03-29T09:22:16.186Z,15.18
2023-03-29T09:23:55.786Z,15.02
2023-03-29T09:25:57.479Z,14.77
2023-03-29T09:27:19.831Z,15.00
2023-03-29T09:28:47.605Z,14.90
2023-03-29T09:30:12.482Z,15.03
2023-03-29T09:31:48.648Z,14.76
2023-03-29T09:33:03.445Z,14.79
2023-03-29T09:34:34.678Z,14.84
2023-03-29T09:36:07.027Z,14.81
2023-03-29T09:37:28.840Z,15.03
2023-03-29T09:38:32.155Z,15.22
2023-03-29T09:39:34.200Z,14.74
2023-03-29T09:40:56.671Z,15.01
2023-03-29T09:41:59.782Z,14.76
2023-03-29T09:43:04.305Z,14.76
2023-03-29T09:44:29.763Z,15.28
2023-03-29T09:45:39.389Z,14.81
2023-03-29T09:46:47.632Z,14.82
2023-03-29T09:48:07.984Z,14.97
2023-03-29T09:49:17.728Z,15.05
2023-03-29T09:50:31.573Z,14.81
2023-03-29T09:51:37.562Z,15.21
2023-03-29T09:52:39.796Z,15.05
2023-03-29T09:53:49.602Z,14.98
2023-03-29T09:55:31.112Z,14.96
2023-03-29T09:56:56.013Z,15.29
2023-03-29T09:58:25.050Z,15.21
2023-03-29T09:59:29.150Z,15.12
2023-03-29T10:00:31.041Z,15.01
2023-03-29T10:01:45.626Z,14.92
2023-03-29T10:02:53.921Z,14.91
2023-03-29T10:04:01.962Z,15.24
2023-03-29T10:05:06.365Z,14.94
2023-03-29T10:06:11.279Z,15.19
2023-03-29T10:07:20.778Z,14.87
2023-03-29T10:08:36.844Z,15.22
2023-03-29T10:09:42.475Z,15.06
2023-03-29T10:10:51.600Z,14.77
2023-03-29T10:12:02.329Z,14.90
2023-03-29T10:13:07.245Z,15.29
2023-03-29T10:14:23.055Z,14.82
2023-03-29T10:15:30.377Z,15.00
2023-03-29T10:16:46.416Z,14.93
2023-03-29T10:17:48.921Z,14.97
2023-03-29T10:18:51.147Z,14.70
2023-03-29T10:19:57.838Z,14.82
2023-03-29T10:21:02.555Z,15.36
2023-03-29T10:22:07.953Z,14.80
2023-03-29T10:23:18.528Z,14.90
2023-03-29T10:24:25.980Z,15.15
2023-03-29T10:25:31.408Z,14.90
2023-03-29T10:26:34.495Z,15.08
2023-03-29T10:27:36.487Z,15.23
2023-03-29T10:28:38.842Z,15.21
2023-03-29T10:29:42.586Z,15.06
2023-03-29T10:30:52.512Z,14.78
2023-03-29T10:31:54.998Z,15.00
2023-03-29T10:32:59.861Z,15.16
2023-03-29T10:34:06.563Z,14.90
2023-03-29T10:35:24.180Z,14.68
2023-03-29T10:36:27.563Z,15.09
2023-03-29T10:37:29.517Z,14.81
2023-03-29T10:38:32.073Z,14.85
2023-03-29T10:39:35.069Z,14.94
2023-03-29T10:40:45.120Z,14.92
2023-03-29T10:41:52.537Z,14.91
2023-03-29T10:42:59.433Z,14.92
2023-03-29T10:44:02.339Z,14.83
2023-03-29T10:45:04.405Z,15.08
2023-03-29T10:46:09.327Z,14.49
2023-03-29T10:47:20.311Z,15.06
2023-03-29T10:48:29.959Z,15.42
2023-03-29T10:49:41.149Z,14.95
2023-03-29T10:50:43.202Z,14.76
2023-03-29T10:51:47.001Z,14.77
2023-03-29T10:52:50.481Z,14.75
2023-03-29T10:53:52.281Z,14.64
2023-03-29T10:54:56.345Z,14.93
2023-03-29T10:56:23.055Z,14.94
2023-03-29T10:57:44.686Z,14.59
2023-03-29T10:59:11.095Z,14.48
2023-03-29T11:00:29.415Z,14.47
2023-03-29T11:01:42.639Z,14.57
2023-03-29T11:03:07.586Z,14.44
2023-03-29T11:04:30.025Z,14.41
2023-03-29T11:05:49.984Z,14.89
2023-03-29T11:07:00.718Z,14.63
2023-03-29T11:08:20.754Z,14.58
2023-03-29T11:09:34.591Z,14.79
2023-03-29T11:10:50.879Z,14.70
2023-03-29T11:12:16.552Z,14.47
2023-03-29T11:13:27.874Z,14.78
2023-03-29T11:14:50.604Z,14.63
2023-03-29T11:15:52.360Z,14.57
2023-03-29T11:17:38.618Z,14.97
2023-03-29T11:18:43.662Z,14.42
2023-03-29T11:20:20.309Z,14.70
2023-03-29T11:21:34.156Z,14.57
2023-03-29T11:22:47.816Z,14.75
2023-03-29T11:24:00.316Z,14.49
2023-03-29T11:25:32.225Z,14.66
2023-03-29T11:26:36.778Z,14.76
2023-03-29T11:28:03.918Z,14.71
2023-03-29T11:29:23.443Z,14.60
2023-03-29T11:30:42.449Z,14.70
2023-03-29T11:31:58.946Z,14.31
2023-03-29T11:33:25.262Z,14.72
2023-03-29T11:35:00.225Z,14.37
2023-03-29T11:36:09.379Z,14.75
2023-03-29T11:37:37.387Z,14.29
2023-03-29T11:38:55.723Z,14.77
2023-03-29T11:40:05.851Z,14.69
2023-03-29T11:41:26.708Z,14.36
2023-03-29T11:42:33.233Z,14.69
2023-03-29T11:43:44.428Z,14.41
2023-03-29T11:44:49.049Z,14.38
2023-03-29T11:45:56.014Z,14.23
2023-03-29T11:46:58.710Z,14.23
2023-03-29T11:48:05.446Z,14.78
2023-03-29T11:49:59.875Z,14.38
2023-03-29T11:51:09.803Z,14.65
2023-03-29T11:52:20.401Z,14.38
2023-03-29T11:53:57.217Z,14.61
2023-03-29T11:55:04.394Z,14.29
2023-03-29T11:56:14.470Z,14.22
2023-03-29T11:57:27.888Z,14.76
2023-03-29T11:58:36.649Z,14.38
2023-03-29T11:59:53.584Z,14.71
2023-03-29T12:01:01.877Z,14.29
2023-03-29T12:02:23.703Z,14.47
2023-03-29T12:03:57.455Z,14.12
2023-03-29T12:05:05.578Z,14.23
2023-03-29T12:06:36.153Z,14.33
2023-03-29T12:07:46.842Z,14.62
2023-03-29T12:08:58.941Z,14.36
2023-03-29T12:10:07.175Z,14.31
2023-03-29T12:11:19.796Z,14.34
2023-03-29T12:12:45.730Z,14.45
2023-03-29T12:13:56.420Z,14.23
2023-03-29T12:15:07.072Z,14.62
2023-03-29T12:16:34.602Z,14.42
2023-03-29T12:17:43.508Z,14.38
2023-03-29T12:18:49.950Z,14.18
2023-03-29T12:20:07.002Z,14.71
2023-03-29T12:21:18.931Z,14.38
2023-03-29T12:22:22.642Z,14.50
2023-03-29T12:23:24.599Z,14.42
2023-03-29T12:24:31.857Z,14.51
2023-03-29T12:26:12.008Z,14.36
2023-03-29T12:27:22.784Z,14.54
2023-03-29T12:28:36.790Z,14.03
2023-03-29T12:29:41.188Z,14.14
2023-03-29T12:30:50.932Z,14.32
2023-03-29T12:32:17.372Z,14.58
2023-03-29T12:33:49.256Z,14.15
2023-03-29T12:35:17.096Z,14.48
2023-03-29T12:36:39.082Z,14.12
2023-03-29T12:38:05.214Z,14.29
2023-03-29T12:39:28.915Z,14.21
2023-03-29T12:40:57.204Z,14.44
2023-03-29T12:42:21.087Z,14.18
2023-03-29T12:44:03.513Z,14.48
2023-03-29T12:45:37.366Z,14.28
2023-03-29T12:46:40.555Z,14.15
2023-03-29T12:47:45.646Z,14.42
2023-03-29T12:48:51.168Z,14.39
2023-03-29T12:49:58.610Z,14.42
2023-03-29T12:51:07.838Z,14.23
2023-03-29T12:52:27.059Z,14.25
2023-03-29T12:53:35.769Z,13.93
2023-03-29T12:54:37.885Z,14.28
2023-03-29T12:55:42.541Z,14.32
2023-03-29T12:57:23.172Z,14.55
2023-03-29T12:58:40.481Z,14.31
2023-03-29T12:59:48.443Z,14.17
2023-03-29T13:01:05.773Z,14.35
2023-03-29T13:02:14.165Z,14.53
2023-03-29T13:03:28.658Z,14.21
2023-03-29T13:04:55.810Z,14.03
2023-03-29T13:06:10.284Z,14.00
2023-03-29T13:07:26.388Z,14.41
2023-03-29T13:08:35.313Z,14.22
2023-03-29T13:09:56.526Z,14.27
2023-03-29T13:10:58.909Z,14.19
2023-03-29T13:12:15.904Z,14.40
2023-03-29T13:13:21.637Z,14.43
2023-03-29T13:14:30.075Z,14.48
2023-03-29T13:15:34.612Z,14.43
2023-03-29T13:16:37.056Z,14.15
2023-03-29T13:18:02.737Z,14.64
2023-03-29T13:19:20.017Z,14.49
2023-03-29T13:20:32.971Z,14.40
2023-03-29T13:22:00.582Z,14.58
2023-03-29T13:23:02.437Z,14.23
2023-03-29T13:24:44.561Z,14.59
2023-03-29T13:26:19.205Z,14.57
2023-03-29T13:27:54.477Z,14.31
2023-03-29T13:29:12.724Z,14.12
2023-03-29T13:30:28.502Z,14.40
2023-03-29T13:31:56.463Z,14.15
2023-03-29T13:33:26.232Z,14.18
2023-03-29T13:34:37.822Z,14.51
2023-03-29T13:35:47.295Z,14.30
2023-03-29T13:37:13.352Z,14.19
2023-03-29T13:38:19.654Z,14.04
2023-03-29T13:39:28.076Z,14.16
2023-03-29T13:40:29.955Z,14.18
2023-03-29T13:41:39.223Z,14.12
2023-03-29T13:42:41.962Z,14.08
2023-03-29T13:43:44.619Z,14.10
2023-03-29T13:44:49.237Z,14.09
2023-03-29T13:45:57.410Z,13.82
2023-03-29T13:47:30.433Z,14.04
2023-03-29T13:48:35.318Z,13.90
2023-03-29T13:49:38.203Z,14.12
2023-03-29T13:50:53.344Z,13.95
2023-03-29T13:52:17.058Z,13.86
2023-03-29T13:53:30.952Z,14.21
2023-03-29T13:54:39.538Z,14.03
2023-03-29T13:55:48.148Z,13.73
2023-03-29T13:57:02.153Z,14.20
2023-03-29T13:58:10.418Z,13.93
2023-03-29T13:59:15.513Z,14.06
2023-03-29T14:00:23.830Z,13.68
2023-03-29T14:01:36.488Z,13.62
2023-03-29T14:02:48.776Z,13.64
2023-03-29T14:03:52.938Z,13.82
2023-03-29T14:04:56.290Z,13.53
2023-03-29T14:06:01.471Z,13.79
2023-03-29T14:07:06.870Z,14.00
2023-03-29T14:08:17.693Z,14.11
2023-03-29T14:09:23.370Z,13.73
2023-03-29T14:10:37.972Z,13.57
2023-03-29T14:11:45.711Z,13.96
2023-03-29T14:12:48.795Z,13.56
2023-03-29T14:13:59.420Z,14.01
2023-03-29T14:15:04.873Z,13.97
2023-03-29T14:16:10.941Z,13.91
2023-03-29T14:17:21.780Z,13.96
2023-03-29T14:18:25.741Z,14.02
2023-03-29T14:19:33.079Z,14.11
2023-03-29T14:20:34.956Z,14.00
2023-03-29T14:21:37.633Z,14.02
2023-03-29T14:22:43.947Z,13.76
2023-03-29T14:23:47.856Z,13.55
2023-03-29T14:24:54.617Z,13.70
2023-03-29T14:26:08.008Z,13.79
2023-03-29T14:27:12.249Z,13.92
2023-03-29T14:28:26.000Z,13.83
2023-03-29T14:29:31.852Z,13.94
2023-03-29T14:30:33.623Z,13.73
2023-03-29T14:31:38.176Z,13.87
2023-03-29T14:32:40.255Z,13.67
2023-03-29T14:33:42.553Z,13.84
2023-03-29T14:34:48.403Z,13.92
2023-03-29T14:35:50.624Z,13.88
2023-03-29T14:36:54.240Z,13.92
2023-03-29T14:37:56.618Z,13.98
2023-03-29T14:39:02.873Z,13.71
2023-03-29T14:40:09.028Z,13.65
2023-03-29T14:41:10.988Z,13.97
2023-03-29T14:42:17.776Z,14.01
2023-03-29T14:43:24.504Z,13.68
2023-03-29T14:44:31.891Z,13.83
2023-03-29T14:45:34.193Z,13.95
2023-03-29T14:46:36.964Z,14.04
2023-03-29T14:47:40.609Z,13.77
2023-03-29T14:48:43.505Z,13.71
2023-03-29T14:49:45.687Z,13.82
2023-03-29T14:50:48.105Z,13.87
2023-03-29T14:51:51.085Z,13.76
2023-03-29T14:52:53.820Z,13.40
2023-03-29T14:53:57.522Z,13.82
2023-03-29T14:55:01.928Z,13.75
2023-03-29T14:56:05.171Z,13.69
2023-03-29T14:57:08.045Z,13.58
2023-03-29T14:58:27.494Z,13.49
2023-03-29T14:59:36.960Z,13.64
2023-03-29T15:00:42.550Z,13.53
2023-03-29T15:01:44.844Z,13.68
2023-03-29T15:02:55.405Z,13.64
2023-03-29T15:04:04.992Z,13.72
2023-03-29T15:05:25.786Z,13.73
2023-03-29T15:06:29.251Z,13.51
2023-03-29T15:07:33.850Z,13.41
2023-03-29T15:08:38.217Z,13.65
2023-03-29T15:09:40.779Z,13.40
2023-03-29T15:10:44.917Z,13.19